sensor_id;sensor_type;location;lat;lon;timestamp;pressure;altitude;pressure_sealevel;temperature;humidity
72548;BME280;60570;50.848;6.776;2023-02-11T00:00:23;102440.22;;;6.99;66.65
72548;BME280;60570;50.848;6.776;2023-02-11T00:01:32;102456.50;;;6.95;66.72
72548;BME280;60570;50.848;6.776;2023-02-11T00:02:33;102443.75;;;6.94;66.92
72548;BME280;60570;50.848;6.776;2023-02-11T00:03:33;102443.47;;;6.91;67.14
72548;BME280;60570;50.848;6.776;2023-02-11T00:04:34;102445.94;;;6.92;67.12
72548;BME280;60570;50.848;6.776;2023-02-11T00:05:34;102444.59;;;6.95;67.26
72548;BME280;60570;50.848;6.776;2023-02-11T00:06:35;102439.84;;;6.90;67.02
72548;BME280;60570;50.848;6.776;2023-02-11T00:07:36;102439.28;;;6.88;67.28
72548;BME280;60570;50.848;6.776;2023-02-11T00:08:39;102431.84;;;6.89;67.19
72548;BME280;60570;50.848;6.776;2023-02-11T00:09:39;102437.66;;;6.92;66.99
72548;BME280;60570;50.848;6.776;2023-02-11T00:10:40;102431.88;;;6.94;67.22
72548;BME280;60570;50.848;6.776;2023-02-11T00:11:40;102427.41;;;6.88;67.05
72548;BME280;60570;50.848;6.776;2023-02-11T00:12:40;102432.13;;;6.92;66.93
72548;BME280;60570;50.848;6.776;2023-02-11T00:13:43;102425.19;;;6.85;67.13
72548;BME280;60570;50.848;6.776;2023-02-11T00:14:43;102420.81;;;6.94;67.19
72548;BME280;60570;50.848;6.776;2023-02-11T00:15:44;102428.25;;;6.88;67.28
72548;BME280;60570;50.848;6.776;2023-02-11T00:16:44;102427.09;;;6.84;67.54
72548;BME280;60570;50.848;6.776;2023-02-11T00:17:45;102427.16;;;6.89;67.41
72548;BME280;60570;50.848;6.776;2023-02-11T00:18:45;102430.16;;;6.88;67.35
72548;BME280;60570;50.848;6.776;2023-02-11T00:19:50;102430.69;;;6.85;67.38
72548;BME280;60570;50.848;6.776;2023-02-11T00:20:50;102423.75;;;6.82;67.09
72548;BME280;60570;50.848;6.776;2023-02-11T00:21:51;102429.88;;;6.84;67.44
72548;BME280;60570;50.848;6.776;2023-02-11T00:22:51;102423.53;;;6.84;67.49
72548;BME280;60570;50.848;6.776;2023-02-11T00:23:52;102429.06;;;6.89;67.43
72548;BME280;60570;50.848;6.776;2023-02-11T00:24:54;102430.72;;;6.90;66.85
72548;BME280;60570;50.848;6.776;2023-02-11T00:25:56;102426.88;;;6.91;67.05
72548;BME280;60570;50.848;6.776;2023-02-11T00:26:57;102428.81;;;6.90;67.01
72548;BME280;60570;50.848;6.776;2023-02-11T00:27:57;102421.09;;;6.92;67.04
72548;BME280;60570;50.848;6.776;2023-02-11T00:28:58;102419.44;;;6.91;67.19
72548;BME280;60570;50.848;6.776;2023-02-11T00:30:00;102412.78;;;6.87;67.14
72548;BME280;60570;50.848;6.776;2023-02-11T00:31:01;102411.63;;;6.83;67.38
72548;BME280;60570;50.848;6.776;2023-02-11T00:32:02;102413.59;;;6.88;67.21
72548;BME280;60570;50.848;6.776;2023-02-11T00:33:04;102419.38;;;6.86;67.21
72548;BME280;60570;50.848;6.776;2023-02-11T00:34:04;102410.53;;;6.84;67.29
72548;BME280;60570;50.848;6.776;2023-02-11T00:35:05;102412.78;;;6.87;67.42
72548;BME280;60570;50.848;6.776;2023-02-11T00:36:17;102411.63;;;6.83;67.42
72548;BME280;60570;50.848;6.776;2023-02-11T00:37:18;102407.19;;;6.82;67.35
72548;BME280;60570;50.848;6.776;2023-02-11T00:38:19;102408.06;;;6.88;67.45
72548;BME280;60570;50.848;6.776;2023-02-11T00:39:19;102407.53;;;6.86;67.07
72548;BME280;60570;50.848;6.776;2023-02-11T00:40:19;102401.66;;;6.82;67.32
72548;BME280;60570;50.848;6.776;2023-02-11T00:41:21;102410.28;;;6.86;67.53
72548;BME280;60570;50.848;6.776;2023-02-11T00:42:22;102411.91;;;6.82;67.40
72548;BME280;60570;50.848;6.776;2023-02-11T00:43:22;102404.75;;;6.86;67.14
72548;BME280;60570;50.848;6.776;2023-02-11T00:44:23;102405.00;;;6.84;67.31
72548;BME280;60570;50.848;6.776;2023-02-11T00:45:23;102405.84;;;6.85;67.25
72548;BME280;60570;50.848;6.776;2023-02-11T00:46:23;102410.81;;;6.88;66.94
72548;BME280;60570;50.848;6.776;2023-02-11T00:47:24;102400.31;;;6.85;67.07
72548;BME280;60570;50.848;6.776;2023-02-11T00:48:24;102409.72;;;6.84;67.27
72548;BME280;60570;50.848;6.776;2023-02-11T00:49:25;102403.63;;;6.82;67.10
72548;BME280;60570;50.848;6.776;2023-02-11T00:50:25;102397.25;;;6.81;67.26
72548;BME280;60570;50.848;6.776;2023-02-11T00:51:27;102395.06;;;6.83;67.45
72548;BME280;60570;50.848;6.776;2023-02-11T00:52:27;102397.25;;;6.81;67.57
72548;BME280;60570;50.848;6.776;2023-02-11T00:53:29;102387.56;;;6.79;67.94
72548;BME280;60570;50.848;6.776;2023-02-11T00:54:30;102392.56;;;6.82;67.85
72548;BME280;60570;50.848;6.776;2023-02-11T00:55:30;102392.59;;;6.87;67.28
72548;BME280;60570;50.848;6.776;2023-02-11T00:56:31;102393.38;;;6.82;67.54
72548;BME280;60570;50.848;6.776;2023-02-11T00:57:31;102388.97;;;6.81;67.32
72548;BME280;60570;50.848;6.776;2023-02-11T00:58:32;102390.38;;;6.84;67.38
72548;BME280;60570;50.848;6.776;2023-02-11T00:59:33;102391.47;;;6.83;67.26
72548;BME280;60570;50.848;6.776;2023-02-11T01:00:33;102395.84;;;6.79;67.67
72548;BME280;60570;50.848;6.776;2023-02-11T01:01:33;102392.31;;;6.83;67.49
72548;BME280;60570;50.848;6.776;2023-02-11T01:02:34;102388.44;;;6.84;67.41
72548;BME280;60570;50.848;6.776;2023-02-11T01:03:35;102384.00;;;6.83;67.12
72548;BME280;60570;50.848;6.776;2023-02-11T01:04:35;102380.72;;;6.86;67.50
72548;BME280;60570;50.848;6.776;2023-02-11T01:05:36;102385.38;;;6.81;67.62
72548;BME280;60570;50.848;6.776;2023-02-11T01:06:36;102385.44;;;6.86;67.13
72548;BME280;60570;50.848;6.776;2023-02-11T01:07:37;102386.78;;;6.83;67.43
72548;BME280;60570;50.848;6.776;2023-02-11T01:08:38;102377.94;;;6.81;67.09
72548;BME280;60570;50.848;6.776;2023-02-11T01:09:38;102384.84;;;6.84;67.09
72548;BME280;60570;50.848;6.776;2023-02-11T01:10:39;102388.44;;;6.84;67.28
72548;BME280;60570;50.848;6.776;2023-02-11T01:11:39;102393.16;;;6.84;67.20
72548;BME280;60570;50.848;6.776;2023-02-11T01:12:40;102391.47;;;6.83;67.16
72548;BME280;60570;50.848;6.776;2023-02-11T01:13:41;102390.63;;;6.82;67.10
72548;BME280;60570;50.848;6.776;2023-02-11T01:14:42;102396.97;;;6.83;67.38
72548;BME280;60570;50.848;6.776;2023-02-11T01:15:42;102389.47;;;6.78;67.61
72548;BME280;60570;50.848;6.776;2023-02-11T01:16:42;102396.16;;;6.82;67.27
72548;BME280;60570;50.848;6.776;2023-02-11T01:17:43;102396.69;;;6.79;67.29
72548;BME280;60570;50.848;6.776;2023-02-11T01:18:44;102401.09;;;6.80;67.61
72548;BME280;60570;50.848;6.776;2023-02-11T01:19:45;102396.47;;;6.86;67.11
72548;BME280;60570;50.848;6.776;2023-02-11T01:20:45;102400.59;;;6.83;67.10
72548;BME280;60570;50.848;6.776;2023-02-11T01:21:46;102389.25;;;6.80;67.40
72548;BME280;60570;50.848;6.776;2023-02-11T01:22:46;102396.69;;;6.79;67.22
72548;BME280;60570;50.848;6.776;2023-02-11T01:23:47;102394.53;;;6.86;67.48
72548;BME280;60570;50.848;6.776;2023-02-11T01:24:47;102399.25;;;6.86;67.28
72548;BME280;60570;50.848;6.776;2023-02-11T01:25:48;102405.00;;;6.84;67.19
72548;BME280;60570;50.848;6.776;2023-02-11T01:26:48;102411.41;;;6.90;66.88
72548;BME280;60570;50.848;6.776;2023-02-11T01:27:49;102410.00;;;6.87;67.31
72548;BME280;60570;50.848;6.776;2023-02-11T01:28:49;102413.34;;;6.89;67.04
72548;BME280;60570;50.848;6.776;2023-02-11T01:29:50;102412.50;;;6.89;67.30
72548;BME280;60570;50.848;6.776;2023-02-11T01:30:51;102414.41;;;6.83;67.65
72548;BME280;60570;50.848;6.776;2023-02-11T01:31:51;102407.19;;;6.82;67.08
72548;BME280;60570;50.848;6.776;2023-02-11T01:32:52;102404.69;;;6.81;67.27
72548;BME280;60570;50.848;6.776;2023-02-11T01:33:52;102414.13;;;6.85;67.25
72548;BME280;60570;50.848;6.776;2023-02-11T01:34:53;102415.19;;;6.79;67.38
72548;BME280;60570;50.848;6.776;2023-02-11T01:35:53;102419.88;;;6.78;67.27
72548;BME280;60570;50.848;6.776;2023-02-11T01:36:58;102409.66;;;6.79;67.62
72548;BME280;60570;50.848;6.776;2023-02-11T01:37:58;102412.72;;;6.82;67.40
72548;BME280;60570;50.848;6.776;2023-02-11T01:38:59;102406.38;;;6.82;67.56
72548;BME280;60570;50.848;6.776;2023-02-11T01:40:09;102408.81;;;6.78;67.29
72548;BME280;60570;50.848;6.776;2023-02-11T01:41:11;102405.28;;;6.83;67.07
72548;BME280;60570;50.848;6.776;2023-02-11T01:42:19;102406.38;;;6.82;67.23
72548;BME280;60570;50.848;6.776;2023-02-11T01:43:21;102411.91;;;6.82;67.32
72548;BME280;60570;50.848;6.776;2023-02-11T01:44:37;102414.09;;;6.80;67.32
72548;BME280;60570;50.848;6.776;2023-02-11T01:45:52;102413.56;;;6.83;67.16
72548;BME280;60570;50.848;6.776;2023-02-11T01:46:55;102413.59;;;6.88;67.24
72548;BME280;60570;50.848;6.776;2023-02-11T01:47:55;102409.75;;;6.89;67.08
72548;BME280;60570;50.848;6.776;2023-02-11T01:49:06;102406.38;;;6.82;67.46
72548;BME280;60570;50.848;6.776;2023-02-11T01:50:07;102422.13;;;6.81;67.50
72548;BME280;60570;50.848;6.776;2023-02-11T01:51:13;102417.09;;;6.78;67.73
72548;BME280;60570;50.848;6.776;2023-02-11T01:52:22;102423.47;;;6.79;67.45
72548;BME280;60570;50.848;6.776;2023-02-11T01:53:25;102423.75;;;6.82;67.56
72548;BME280;60570;50.848;6.776;2023-02-11T01:54:50;102419.94;;;6.83;67.21
72548;BME280;60570;50.848;6.776;2023-02-11T01:56:10;102416.88;;;6.85;67.45
72548;BME280;60570;50.848;6.776;2023-02-11T01:57:33;102420.44;;;6.80;67.68
72548;BME280;60570;50.848;6.776;2023-02-11T01:58:37;102413.00;;;6.81;67.23
72548;BME280;60570;50.848;6.776;2023-02-11T02:00:07;102421.00;;;6.82;67.44
72548;BME280;60570;50.848;6.776;2023-02-11T02:01:12;102428.25;;;6.88;67.09
72548;BME280;60570;50.848;6.776;2023-02-11T02:02:16;102419.94;;;6.83;67.16
72548;BME280;60570;50.848;6.776;2023-02-11T02:03:21;102425.97;;;6.80;67.13
72548;BME280;60570;50.848;6.776;2023-02-11T02:04:24;102426.50;;;6.77;67.52
72548;BME280;60570;50.848;6.776;2023-02-11T02:07:03;102436.69;;;6.77;67.52
72548;BME280;60570;50.848;6.776;2023-02-11T02:08:33;102430.09;;;6.78;67.38
72548;BME280;60570;50.848;6.776;2023-02-11T02:09:39;102430.66;;;6.80;67.19
72548;BME280;60570;50.848;6.776;2023-02-11T02:10:44;102434.50;;;6.79;67.70
72548;BME280;60570;50.848;6.776;2023-02-11T02:11:45;102442.28;;;6.82;67.49
72548;BME280;60570;50.848;6.776;2023-02-11T02:12:46;102443.94;;;6.83;67.47
72548;BME280;60570;50.848;6.776;2023-02-11T02:13:46;102438.97;;;6.80;67.82
72548;BME280;60570;50.848;6.776;2023-02-11T02:14:48;102438.38;;;6.78;67.41
72548;BME280;60570;50.848;6.776;2023-02-11T02:15:51;102440.41;;;6.87;67.19
72548;BME280;60570;50.848;6.776;2023-02-11T02:16:52;102440.59;;;6.81;67.21
72548;BME280;60570;50.848;6.776;2023-02-11T02:18:00;102435.09;;;6.81;67.30
72548;BME280;60570;50.848;6.776;2023-02-11T02:20:51;102435.63;;;6.78;67.75
72548;BME280;60570;50.848;6.776;2023-02-11T02:25:25;102418.78;;;6.79;67.17
72548;BME280;60570;50.848;6.776;2023-02-11T02:33:29;102411.06;;;6.81;67.48
72548;BME280;60570;50.848;6.776;2023-02-11T02:34:50;102404.13;;;6.79;67.66
72548;BME280;60570;50.848;6.776;2023-02-11T02:37:20;102411.84;;;6.77;67.76
72548;BME280;60570;50.848;6.776;2023-02-11T02:39:44;102412.41;;;6.79;67.51
72548;BME280;60570;50.848;6.776;2023-02-11T02:42:00;102414.34;;;6.78;67.74
72548;BME280;60570;50.848;6.776;2023-02-11T02:43:02;102409.94;;;6.77;67.46
72548;BME280;60570;50.848;6.776;2023-02-11T02:44:04;102407.19;;;6.82;67.76
72548;BME280;60570;50.848;6.776;2023-02-11T02:45:06;102408.56;;;6.80;67.83
72548;BME280;60570;50.848;6.776;2023-02-11T02:46:18;102410.50;;;6.79;67.74
72548;BME280;60570;50.848;6.776;2023-02-11T02:47:18;102405.81;;;6.80;67.35
72548;BME280;60570;50.848;6.776;2023-02-11T02:48:30;102413.00;;;6.81;67.55
72548;BME280;60570;50.848;6.776;2023-02-11T02:49:30;102409.94;;;6.82;67.53
72548;BME280;60570;50.848;6.776;2023-02-11T02:50:35;102409.44;;;6.85;67.52
72548;BME280;60570;50.848;6.776;2023-02-11T02:52:03;102398.09;;;6.82;67.57
72548;BME280;60570;50.848;6.776;2023-02-11T02:53:17;102398.66;;;6.84;67.57
72548;BME280;60570;50.848;6.776;2023-02-11T02:56:05;102394.78;;;6.85;67.43
72548;BME280;60570;50.848;6.776;2023-02-11T02:58:57;102395.91;;;6.84;67.37
72548;BME280;60570;50.848;6.776;2023-02-11T03:00:40;102399.25;;;6.86;67.13
72548;BME280;60570;50.848;6.776;2023-02-11T03:03:14;102390.94;;;6.86;67.54
72548;BME280;60570;50.848;6.776;2023-02-11T03:04:22;102390.69;;;6.87;67.15
72548;BME280;60570;50.848;6.776;2023-02-11T03:07:04;102374.13;;;6.92;67.17
72548;BME280;60570;50.848;6.776;2023-02-11T03:08:25;102369.38;;;6.88;67.23
72548;BME280;60570;50.848;6.776;2023-02-11T03:09:32;102380.13;;;6.84;67.26
72548;BME280;60570;50.848;6.776;2023-02-11T03:10:43;102369.66;;;6.86;67.03
72548;BME280;60570;50.848;6.776;2023-02-11T03:11:45;102372.41;;;6.81;67.80
72548;BME280;60570;50.848;6.776;2023-02-11T03:12:46;102374.38;;;6.86;67.64
72548;BME280;60570;50.848;6.776;2023-02-11T03:13:48;102371.28;;;6.82;67.54
72548;BME280;60570;50.848;6.776;2023-02-11T03:14:50;102361.91;;;6.83;67.66
72548;BME280;60570;50.848;6.776;2023-02-11T03:15:52;102364.13;;;6.86;67.52
72548;BME280;60570;50.848;6.776;2023-02-11T03:16:56;102358.59;;;6.81;67.73
72548;BME280;60570;50.848;6.776;2023-02-11T03:17:59;102361.88;;;6.78;67.85
72548;BME280;60570;50.848;6.776;2023-02-11T03:19:07;102367.66;;;6.77;67.45
72548;BME280;60570;50.848;6.776;2023-02-11T03:20:12;102371.84;;;6.79;67.69
72548;BME280;60570;50.848;6.776;2023-02-11T03:21:15;102370.41;;;6.77;67.92
72548;BME280;60570;50.848;6.776;2023-02-11T03:22:31;102377.09;;;6.81;67.53
72548;BME280;60570;50.848;6.776;2023-02-11T03:23:43;102366.56;;;6.78;67.52
72548;BME280;60570;50.848;6.776;2023-02-11T03:24:47;102353.34;;;6.80;67.63
72548;BME280;60570;50.848;6.776;2023-02-11T03:25:52;102361.63;;;6.80;67.87
72548;BME280;60570;50.848;6.776;2023-02-11T03:26:57;102360.88;;;6.89;67.42
72548;BME280;60570;50.848;6.776;2023-02-11T03:29:58;102358.91;;;6.90;67.15
72548;BME280;60570;50.848;6.776;2023-02-11T03:31:11;102357.81;;;6.86;67.34
72548;BME280;60570;50.848;6.776;2023-02-11T03:32:26;102358.03;;;6.84;67.35
72548;BME280;60570;50.848;6.776;2023-02-11T03:33:34;102357.25;;;6.84;67.40
72548;BME280;60570;50.848;6.776;2023-02-11T03:34:56;102359.19;;;6.88;67.43
72548;BME280;60570;50.848;6.776;2023-02-11T03:36:17;102357.81;;;6.86;67.25
72548;BME280;60570;50.848;6.776;2023-02-11T03:37:52;102362.22;;;6.87;67.40
72548;BME280;60570;50.848;6.776;2023-02-11T03:38:56;102359.19;;;6.88;67.16
72548;BME280;60570;50.848;6.776;2023-02-11T03:40:07;102359.47;;;6.87;67.12
72548;BME280;60570;50.848;6.776;2023-02-11T03:41:11;102365.53;;;6.84;67.19
72548;BME280;60570;50.848;6.776;2023-02-11T03:42:13;102355.56;;;6.83;67.55
72548;BME280;60570;50.848;6.776;2023-02-11T03:43:25;102364.13;;;6.86;67.40
72548;BME280;60570;50.848;6.776;2023-02-11T03:44:32;102360.00;;;6.84;67.40
72548;BME280;60570;50.848;6.776;2023-02-11T03:45:35;102359.66;;;6.80;67.45
72548;BME280;60570;50.848;6.776;2023-02-11T03:46:38;102360.00;;;6.84;67.40
72548;BME280;60570;50.848;6.776;2023-02-11T03:47:44;102366.59;;;6.83;67.24
72548;BME280;60570;50.848;6.776;2023-02-11T03:48:51;102353.06;;;6.81;67.72
72548;BME280;60570;50.848;6.776;2023-02-11T03:49:54;102362.19;;;6.82;67.58
72548;BME280;60570;50.848;6.776;2023-02-11T03:50:56;102354.72;;;6.82;67.48
72548;BME280;60570;50.848;6.776;2023-02-11T03:51:59;102357.81;;;6.91;66.91
72548;BME280;60570;50.848;6.776;2023-02-11T03:53:03;102360.56;;;6.86;67.37
72548;BME280;60570;50.848;6.776;2023-02-11T03:54:09;102359.16;;;6.83;67.25
72548;BME280;60570;50.848;6.776;2023-02-11T03:55:16;102355.81;;;6.81;67.67
72548;BME280;60570;50.848;6.776;2023-02-11T03:56:20;102358.03;;;6.84;67.39
72548;BME280;60570;50.848;6.776;2023-02-11T03:57:21;102358.09;;;6.89;67.27
72548;BME280;60570;50.848;6.776;2023-02-11T03:58:21;102353.06;;;6.81;67.31
72548;BME280;60570;50.848;6.776;2023-02-11T03:59:22;102355.00;;;6.81;67.64
72548;BME280;60570;50.848;6.776;2023-02-11T04:00:29;102350.06;;;6.88;67.39
72548;BME280;60570;50.848;6.776;2023-02-11T04:01:30;102349.47;;;6.81;67.25
72548;BME280;60570;50.848;6.776;2023-02-11T04:02:33;102356.69;;;6.87;67.18
72548;BME280;60570;50.848;6.776;2023-02-11T04:03:34;102348.38;;;6.82;67.45
72548;BME280;60570;50.848;6.776;2023-02-11T04:04:34;102349.16;;;6.77;67.37
72548;BME280;60570;50.848;6.776;2023-02-11T04:05:36;102357.97;;;6.74;67.66
72548;BME280;60570;50.848;6.776;2023-02-11T04:06:37;102355.19;;;6.74;67.97
72548;BME280;60570;50.848;6.776;2023-02-11T04:07:37;102356.59;;;6.72;67.76
72548;BME280;60570;50.848;6.776;2023-02-11T04:08:38;102362.91;;;6.72;68.06
72548;BME280;60570;50.848;6.776;2023-02-11T04:09:38;102356.03;;;6.75;67.61
72548;BME280;60570;50.848;6.776;2023-02-11T04:10:39;102357.16;;;6.74;67.91
72548;BME280;60570;50.848;6.776;2023-02-11T04:11:39;102354.69;;;6.77;67.93
72548;BME280;60570;50.848;6.776;2023-02-11T04:12:39;102352.72;;;6.73;67.88
72548;BME280;60570;50.848;6.776;2023-02-11T04:13:40;102355.78;;;6.76;67.53
72548;BME280;60570;50.848;6.776;2023-02-11T04:14:40;102359.66;;;6.75;67.73
72548;BME280;60570;50.848;6.776;2023-02-11T04:15:41;102361.28;;;6.71;67.74
72548;BME280;60570;50.848;6.776;2023-02-11T04:16:41;102367.94;;;6.75;67.57
72548;BME280;60570;50.848;6.776;2023-02-11T04:17:42;102363.81;;;6.78;67.39
72548;BME280;60570;50.848;6.776;2023-02-11T04:18:42;102371.25;;;6.77;67.83
72548;BME280;60570;50.848;6.776;2023-02-11T04:19:43;102373.19;;;6.77;67.86
72548;BME280;60570;50.848;6.776;2023-02-11T04:20:43;102366.81;;;6.76;67.95
72548;BME280;60570;50.848;6.776;2023-02-11T04:21:46;102362.97;;;6.77;67.51
72548;BME280;60570;50.848;6.776;2023-02-11T04:22:47;102365.16;;;6.75;67.84
72548;BME280;60570;50.848;6.776;2023-02-11T04:23:47;102361.56;;;6.75;67.97
72548;BME280;60570;50.848;6.776;2023-02-11T04:24:48;102372.09;;;6.78;67.95
72548;BME280;60570;50.848;6.776;2023-02-11T04:25:49;102364.13;;;6.81;67.33
72548;BME280;60570;50.848;6.776;2023-02-11T04:26:49;102364.38;;;6.80;67.38
72548;BME280;60570;50.848;6.776;2023-02-11T04:27:50;102364.31;;;6.75;67.66
72548;BME280;60570;50.848;6.776;2023-02-11T04:28:50;102356.63;;;6.77;67.52
72548;BME280;60570;50.848;6.776;2023-02-11T04:29:51;102357.97;;;6.74;67.66
72548;BME280;60570;50.848;6.776;2023-02-11T04:30:51;102355.78;;;6.76;67.82
72548;BME280;60570;50.848;6.776;2023-02-11T04:31:52;102350.25;;;6.76;67.44
72548;BME280;60570;50.848;6.776;2023-02-11T04:32:52;102351.09;;;6.77;67.51
72548;BME280;60570;50.848;6.776;2023-02-11T04:33:53;102349.16;;;6.77;67.60
72548;BME280;60570;50.848;6.776;2023-02-11T04:34:54;102355.53;;;6.78;67.74
72548;BME280;60570;50.848;6.776;2023-02-11T04:35:54;102349.44;;;6.76;67.64
72548;BME280;60570;50.848;6.776;2023-02-11T04:36:55;102353.91;;;6.82;67.79
72548;BME280;60570;50.848;6.776;2023-02-11T04:37:55;102361.88;;;6.78;67.42
72548;BME280;60570;50.848;6.776;2023-02-11T04:38:56;102346.69;;;6.76;67.76
72548;BME280;60570;50.848;6.776;2023-02-11T04:39:56;102353.84;;;6.77;67.87
72548;BME280;60570;50.848;6.776;2023-02-11T04:40:56;102353.28;;;6.75;67.56
72548;BME280;60570;50.848;6.776;2023-02-11T04:41:57;102351.34;;;6.75;68.04
72548;BME280;60570;50.848;6.776;2023-02-11T04:42:58;102346.13;;;6.74;67.93
72548;BME280;60570;50.848;6.776;2023-02-11T04:43:58;102344.78;;;6.81;67.69
72548;BME280;60570;50.848;6.776;2023-02-11T04:44:58;102336.50;;;6.81;67.45
72548;BME280;60570;50.848;6.776;2023-02-11T04:45:59;102334.31;;;6.83;67.38
72548;BME280;60570;50.848;6.776;2023-02-11T04:46:59;102326.53;;;6.80;67.90
72548;BME280;60570;50.848;6.776;2023-02-11T04:48:01;102332.38;;;6.84;67.67
72548;BME280;60570;50.848;6.776;2023-02-11T04:49:02;102329.63;;;6.84;67.32
72548;BME280;60570;50.848;6.776;2023-02-11T04:50:03;102316.63;;;6.84;67.67
72548;BME280;60570;50.848;6.776;2023-02-11T04:51:04;102322.41;;;6.83;67.38
72548;BME280;60570;50.848;6.776;2023-02-11T04:52:04;102324.03;;;6.79;67.75
72548;BME280;60570;50.848;6.776;2023-02-11T04:53:05;102321.56;;;6.82;67.28
72548;BME280;60570;50.848;6.776;2023-02-11T04:54:06;102324.09;;;6.84;67.42
72548;BME280;60570;50.848;6.776;2023-02-11T04:55:06;102326.28;;;6.82;67.26
72548;BME280;60570;50.848;6.776;2023-02-11T04:56:07;102332.06;;;6.80;67.76
72548;BME280;60570;50.848;6.776;2023-02-11T04:57:07;102331.75;;;6.77;67.62
72548;BME280;60570;50.848;6.776;2023-02-11T04:58:08;102322.97;;;6.80;67.58
72548;BME280;60570;50.848;6.776;2023-02-11T04:59:08;102325.44;;;6.81;67.53
72548;BME280;60570;50.848;6.776;2023-02-11T05:00:09;102323.19;;;6.78;67.85
72548;BME280;60570;50.848;6.776;2023-02-11T05:01:13;102324.03;;;6.79;68.02
72548;BME280;60570;50.848;6.776;2023-02-11T05:02:14;102323.19;;;6.78;67.77
72548;BME280;60570;50.848;6.776;2023-02-11T05:03:15;102320.19;;;6.80;67.82
72548;BME280;60570;50.848;6.776;2023-02-11T05:04:15;102329.56;;;6.79;67.73
72548;BME280;60570;50.848;6.776;2023-02-11T05:05:16;102326.81;;;6.79;67.65
72548;BME280;60570;50.848;6.776;2023-02-11T05:06:17;102325.72;;;6.80;67.81
72548;BME280;60570;50.848;6.776;2023-02-11T05:07:17;102326.53;;;6.80;67.45
72548;BME280;60570;50.848;6.776;2023-02-11T05:08:18;102328.72;;;6.78;67.82
72548;BME280;60570;50.848;6.776;2023-02-11T05:09:18;102329.63;;;6.84;67.71
72548;BME280;60570;50.848;6.776;2023-02-11T05:10:18;102327.66;;;6.79;67.62
72548;BME280;60570;50.848;6.776;2023-02-11T05:11:21;102326.28;;;6.82;67.46
72548;BME280;60570;50.848;6.776;2023-02-11T05:12:22;102329.84;;;6.82;67.72
72548;BME280;60570;50.848;6.776;2023-02-11T05:13:23;102329.84;;;6.77;67.69
72548;BME280;60570;50.848;6.776;2023-02-11T05:14:23;102340.34;;;6.80;67.58
72548;BME280;60570;50.848;6.776;2023-02-11T05:15:24;102336.72;;;6.75;67.52
72548;BME280;60570;50.848;6.776;2023-02-11T05:16:25;102340.63;;;6.79;67.90
72548;BME280;60570;50.848;6.776;2023-02-11T05:17:25;102336.78;;;6.80;67.51
72548;BME280;60570;50.848;6.776;2023-02-11T05:18:26;102341.75;;;6.83;67.49
72548;BME280;60570;50.848;6.776;2023-02-11T05:19:26;102336.78;;;6.80;67.77
72548;BME280;60570;50.848;6.776;2023-02-11T05:20:27;102339.53;;;6.80;67.62
72548;BME280;60570;50.848;6.776;2023-02-11T05:21:27;102333.69;;;6.76;67.62
72548;BME280;60570;50.848;6.776;2023-02-11T05:22:28;102336.19;;;6.78;67.81
72548;BME280;60570;50.848;6.776;2023-02-11T05:23:28;102330.13;;;6.81;67.46
72548;BME280;60570;50.848;6.776;2023-02-11T05:24:32;102330.09;;;6.76;67.80
72548;BME280;60570;50.848;6.776;2023-02-11T05:25:33;102331.81;;;6.82;67.86
72548;BME280;60570;50.848;6.776;2023-02-11T05:26:34;102331.25;;;6.80;67.40
72548;BME280;60570;50.848;6.776;2023-02-11T05:27:34;102337.84;;;6.79;67.58
72548;BME280;60570;50.848;6.776;2023-02-11T05:28:35;102328.72;;;6.78;67.51
72548;BME280;60570;50.848;6.776;2023-02-11T05:29:35;102326.81;;;6.79;68.01
72548;BME280;60570;50.848;6.776;2023-02-11T05:30:36;102331.25;;;6.80;67.48
72548;BME280;60570;50.848;6.776;2023-02-11T05:31:36;102331.75;;;6.77;67.93
72548;BME280;60570;50.848;6.776;2023-02-11T05:32:37;102332.06;;;6.80;67.43
72548;BME280;60570;50.848;6.776;2023-02-11T05:33:37;102334.81;;;6.80;67.50
72548;BME280;60570;50.848;6.776;2023-02-11T05:34:38;102332.91;;;6.81;67.55
72548;BME280;60570;50.848;6.776;2023-02-11T05:35:38;102332.31;;;6.79;67.90
72548;BME280;60570;50.848;6.776;2023-02-11T05:36:39;102332.59;;;6.77;68.02
72548;BME280;60570;50.848;6.776;2023-02-11T05:37:40;102329.00;;;6.77;68.10
72548;BME280;60570;50.848;6.776;2023-02-11T05:38:40;102326.53;;;6.80;67.60
72548;BME280;60570;50.848;6.776;2023-02-11T05:39:42;102324.03;;;6.79;67.58
72548;BME280;60570;50.848;6.776;2023-02-11T05:40:43;102324.59;;;6.81;67.98
72548;BME280;60570;50.848;6.776;2023-02-11T05:41:44;102318.25;;;6.80;68.02
72548;BME280;60570;50.848;6.776;2023-02-11T05:42:44;102320.75;;;6.82;67.90
72548;BME280;60570;50.848;6.776;2023-02-11T05:43:47;102313.25;;;6.77;67.77
72548;BME280;60570;50.848;6.776;2023-02-11T05:44:50;102318.78;;;6.77;67.98
72548;BME280;60570;50.848;6.776;2023-02-11T05:45:50;102320.72;;;6.77;67.72
72548;BME280;60570;50.848;6.776;2023-02-11T05:46:51;102314.34;;;6.76;67.55
72548;BME280;60570;50.848;6.776;2023-02-11T05:47:51;102313.53;;;6.76;67.99
72548;BME280;60570;50.848;6.776;2023-02-11T05:48:52;102310.78;;;6.76;68.08
72548;BME280;60570;50.848;6.776;2023-02-11T05:49:52;102305.81;;;6.78;68.23
72548;BME280;60570;50.848;6.776;2023-02-11T05:50:53;102317.16;;;6.81;67.61
72548;BME280;60570;50.848;6.776;2023-02-11T05:51:53;102311.91;;;6.80;68.06
72548;BME280;60570;50.848;6.776;2023-02-11T05:52:53;102317.69;;;6.78;67.91
72548;BME280;60570;50.848;6.776;2023-02-11T05:53:54;102316.03;;;6.77;67.81
72548;BME280;60570;50.848;6.776;2023-02-11T05:54:54;102319.34;;;6.79;68.12
72548;BME280;60570;50.848;6.776;2023-02-11T05:55:55;102317.09;;;6.76;68.14
72548;BME280;60570;50.848;6.776;2023-02-11T05:56:55;102308.03;;;6.76;68.17
72548;BME280;60570;50.848;6.776;2023-02-11T05:57:56;102311.03;;;6.74;68.14
72548;BME280;60570;50.848;6.776;2023-02-11T05:58:58;102310.22;;;6.79;68.18
72548;BME280;60570;50.848;6.776;2023-02-11T05:59:59;102312.47;;;6.82;68.01